sensor_id;sensor_type;location;lat;lon;timestamp;pressure;altitude;pressure_sealevel;temperature
62932;BMP280;49037;41.898;25.004;2022-08-21T00:45:17;95899.72;;;20.91
62932;BMP280;49037;41.898;25.004;2022-08-21T00:48:03;95904.47;;;20.75
62932;BMP280;49037;41.898;25.004;2022-08-21T00:51:30;95894.31;;;20.75
62932;BMP280;49037;41.898;25.004;2022-08-21T00:54:01;95889.34;;;20.70
62932;BMP280;49037;41.898;25.004;2022-08-21T00:56:27;95889.44;;;20.72
62932;BMP280;49037;41.898;25.004;2022-08-21T00:58:56;95899.50;;;20.85
62932;BMP280;49037;41.898;25.004;2022-08-21T01:02:59;95884.09;;;20.74
62932;BMP280;49037;41.898;25.004;2022-08-21T01:07:02;95887.31;;;20.70
62932;BMP280;49037;41.898;25.004;2022-08-21T01:09:31;95886.28;;;20.77
62932;BMP280;49037;41.898;25.004;2022-08-21T01:11:57;95880.66;;;20.73
62932;BMP280;49037;41.898;25.004;2022-08-21T01:14:25;95899.84;;;20.62
62932;BMP280;49037;41.898;25.004;2022-08-21T01:16:55;95880.56;;;20.56
62932;BMP280;49037;41.898;25.004;2022-08-21T01:19:25;95873.13;;;20.57
62932;BMP280;49037;41.898;25.004;2022-08-21T01:42:39;95897.91;;;21.43
62932;BMP280;49037;41.898;25.004;2022-08-21T01:45:06;95890.41;;;21.11
62932;BMP280;49037;41.898;25.004;2022-08-21T01:47:36;95881.69;;;20.82
62932;BMP280;49037;41.898;25.004;2022-08-21T01:50:03;95894.13;;;20.71
62932;BMP280;49037;41.898;25.004;2022-08-21T01:52:37;95883.97;;;20.57
62932;BMP280;49037;41.898;25.004;2022-08-21T01:55:05;95898.25;;;20.57
62932;BMP280;49037;41.898;25.004;2022-08-21T01:57:32;95923.81;;;20.52
62932;BMP280;49037;41.898;25.004;2022-08-21T02:00:01;95935.34;;;20.37
62932;BMP280;49037;41.898;25.004;2022-08-21T02:02:58;95938.47;;;20.32
62932;BMP280;49037;41.898;25.004;2022-08-21T02:05:24;95929.97;;;20.24
62932;BMP280;49037;41.898;25.004;2022-08-21T02:07:54;95911.56;;;20.22
62932;BMP280;49037;41.898;25.004;2022-08-21T02:10:31;95901.25;;;20.19
62932;BMP280;49037;41.898;25.004;2022-08-21T02:12:58;95904.56;;;20.18
62932;BMP280;49037;41.898;25.004;2022-08-21T02:15:25;95914.22;;;20.21
62932;BMP280;49037;41.898;25.004;2022-08-21T02:17:58;95902.13;;;20.23
62932;BMP280;49037;41.898;25.004;2022-08-21T02:20:33;95906.06;;;20.21
62932;BMP280;49037;41.898;25.004;2022-08-21T02:23:01;95903.19;;;20.17
62932;BMP280;49037;41.898;25.004;2022-08-21T02:25:32;95905.72;;;20.13
62932;BMP280;49037;41.898;25.004;2022-08-21T02:28:05;95904.13;;;20.08
62932;BMP280;49037;41.898;25.004;2022-08-21T02:30:58;95906.13;;;20.07
62932;BMP280;49037;41.898;25.004;2022-08-21T02:35:40;95910.47;;;19.99
62932;BMP280;49037;41.898;25.004;2022-08-21T02:38:25;95912.16;;;20.06
62932;BMP280;49037;41.898;25.004;2022-08-21T02:43:57;95940.28;;;20.27
62932;BMP280;49037;41.898;25.004;2022-08-21T02:46:35;95941.34;;;20.21
62932;BMP280;49037;41.898;25.004;2022-08-21T02:49:06;95948.16;;;20.22
62932;BMP280;49037;41.898;25.004;2022-08-21T02:58:07;95947.16;;;20.59
62932;BMP280;49037;41.898;25.004;2022-08-21T03:00:37;95948.91;;;20.53
62932;BMP280;49037;41.898;25.004;2022-08-21T03:06:32;95931.59;;;20.44
62932;BMP280;49037;41.898;25.004;2022-08-21T03:09:13;95930.47;;;20.49
62932;BMP280;49037;41.898;25.004;2022-08-21T03:12:11;95905.91;;;20.32
62932;BMP280;49037;41.898;25.004;2022-08-21T03:14:57;95897.34;;;20.22
62932;BMP280;49037;41.898;25.004;2022-08-21T03:27:41;95918.88;;;20.33
62932;BMP280;49037;41.898;25.004;2022-08-21T03:30:50;95919.06;;;20.37
62932;BMP280;49037;41.898;25.004;2022-08-21T03:49:02;95935.44;;;20.39
62932;BMP280;49037;41.898;25.004;2022-08-21T03:57:02;95933.34;;;20.09
62932;BMP280;49037;41.898;25.004;2022-08-21T03:59:32;95937.94;;;20.07
62932;BMP280;49037;41.898;25.004;2022-08-21T04:03:18;95920.47;;;19.81
62932;BMP280;49037;41.898;25.004;2022-08-21T04:07:09;95916.59;;;19.86
62932;BMP280;49037;41.898;25.004;2022-08-21T04:09:34;95922.94;;;19.90
62932;BMP280;49037;41.898;25.004;2022-08-21T04:12:01;95914.31;;;19.94
62932;BMP280;49037;41.898;25.004;2022-08-21T04:14:27;95913.19;;;19.99
62932;BMP280;49037;41.898;25.004;2022-08-21T04:16:53;95910.97;;;19.95
62932;BMP280;49037;41.898;25.004;2022-08-21T04:19:18;95916.91;;;20.05
62932;BMP280;49037;41.898;25.004;2022-08-21T04:22:08;95908.47;;;19.99
62932;BMP280;49037;41.898;25.004;2022-08-21T04:24:34;95916.09;;;20.03
62932;BMP280;49037;41.898;25.004;2022-08-21T04:27:00;95916.09;;;20.03
62932;BMP280;49037;41.898;25.004;2022-08-21T04:29:25;95923.63;;;20.04
62932;BMP280;49037;41.898;25.004;2022-08-21T04:31:51;95921.09;;;20.08
62932;BMP280;49037;41.898;25.004;2022-08-21T04:34:17;95921.59;;;20.05
62932;BMP280;49037;41.898;25.004;2022-08-21T04:36:43;95932.06;;;20.10
62932;BMP280;49037;41.898;25.004;2022-08-21T04:39:08;95940.56;;;20.05
62932;BMP280;49037;41.898;25.004;2022-08-21T04:43:20;95937.69;;;20.01
62932;BMP280;49037;41.898;25.004;2022-08-21T04:45:59;95935.94;;;20.07
62932;BMP280;49037;41.898;25.004;2022-08-21T04:48:53;95944.56;;;20.17
62932;BMP280;49037;41.898;25.004;2022-08-21T04:56:40;95926.66;;;20.25
62932;BMP280;49037;41.898;25.004;2022-08-21T04:59:12;95922.84;;;20.30
62932;BMP280;49037;41.898;25.004;2022-08-21T05:01:39;95919.06;;;20.37
62932;BMP280;49037;41.898;25.004;2022-08-21T05:04:08;95922.13;;;20.45
62932;BMP280;49037;41.898;25.004;2022-08-21T05:06:42;95913.75;;;20.55
62932;BMP280;49037;41.898;25.004;2022-08-21T05:09:43;95913.03;;;20.54
62932;BMP280;49037;41.898;25.004;2022-08-21T05:12:09;95927.03;;;20.64
62932;BMP280;49037;41.898;25.004;2022-08-21T05:14:43;95916.53;;;20.57
62932;BMP280;49037;41.898;25.004;2022-08-21T05:17:09;95914.03;;;20.60
62932;BMP280;49037;41.898;25.004;2022-08-21T05:21:20;95914.78;;;20.63
62932;BMP280;49037;41.898;25.004;2022-08-21T05:23:46;95908.50;;;20.59
62932;BMP280;49037;41.898;25.004;2022-08-21T05:26:11;95915.59;;;20.65
62932;BMP280;49037;41.898;25.004;2022-08-21T05:29:20;95911.47;;;20.49
62932;BMP280;49037;41.898;25.004;2022-08-21T05:31:46;95905.34;;;20.49
62932;BMP280;49037;41.898;25.004;2022-08-21T05:34:14;95907.25;;;20.46
62932;BMP280;49037;41.898;25.004;2022-08-21T05:38:39;95904.56;;;20.46
62932;BMP280;49037;41.898;25.004;2022-08-21T05:41:05;95910.47;;;20.43
62932;BMP280;49037;41.898;25.004;2022-08-21T05:43:38;95921.44;;;20.45
62932;BMP280;49037;41.898;25.004;2022-08-21T05:46:04;95918.03;;;20.44
62932;BMP280;49037;41.898;25.004;2022-08-21T05:50:47;95918.13;;;20.46
62932;BMP280;49037;41.898;25.004;2022-08-21T05:55:51;95912.78;;;20.48
62932;BMP280;49037;41.898;25.004;2022-08-21T05:58:25;95903.69;;;20.42
62932;BMP280;49037;41.898;25.004;2022-08-21T06:08:42;95892.69;;;20.24
62932;BMP280;49037;41.898;25.004;2022-08-21T06:26:55;95903.69;;;19.84
62932;BMP280;49037;41.898;25.004;2022-08-21T06:32:17;95900.44;;;20.01
62932;BMP280;49037;41.898;25.004;2022-08-21T06:35:12;95889.16;;;20.07
62932;BMP280;49037;41.898;25.004;2022-08-21T06:38:08;95904.94;;;20.10
62932;BMP280;49037;41.898;25.004;2022-08-21T06:40:54;95898.88;;;20.12
62932;BMP280;49037;41.898;25.004;2022-08-21T06:43:22;95910.38;;;20.25
62932;BMP280;49037;41.898;25.004;2022-08-21T06:45:55;95902.59;;;20.18
62932;BMP280;49037;41.898;25.004;2022-08-21T06:48:26;95903.91;;;20.32
62932;BMP280;49037;41.898;25.004;2022-08-21T06:50:53;95904.69;;;20.35
62932;BMP280;49037;41.898;25.004;2022-08-21T07:09:08;95916.53;;;21.02
62932;BMP280;49037;41.898;25.004;2022-08-21T07:11:35;95915.78;;;20.85
62932;BMP280;49037;41.898;25.004;2022-08-21T07:14:02;95905.16;;;20.75
62932;BMP280;49037;41.898;25.004;2022-08-21T07:16:28;95920.75;;;20.75
62932;BMP280;49037;41.898;25.004;2022-08-21T07:18:53;95916.56;;;20.72
62932;BMP280;49037;41.898;25.004;2022-08-21T12:24:48;95772.75;;;25.95
62932;BMP280;49037;41.898;25.004;2022-08-21T12:29:56;95767.41;;;25.67
62932;BMP280;49037;41.898;25.004;2022-08-21T12:32:45;95779.72;;;25.68
62932;BMP280;49037;41.898;25.004;2022-08-21T12:35:18;95764.00;;;25.36
62932;BMP280;49037;41.898;25.004;2022-08-21T12:40:43;95767.28;;;25.31
62932;BMP280;49037;41.898;25.004;2022-08-21T12:43:14;95761.84;;;25.33
62932;BMP280;49037;41.898;25.004;2022-08-21T12:45:46;95760.72;;;25.43
62932;BMP280;49037;41.898;25.004;2022-08-21T12:48:43;95763.50;;;25.45
62932;BMP280;49037;41.898;25.004;2022-08-21T12:51:18;95755.28;;;25.45
62932;BMP280;49037;41.898;25.004;2022-08-21T12:53:55;95758.06;;;25.47
62932;BMP280;49037;41.898;25.004;2022-08-21T12:58:34;95749.56;;;25.65
62932;BMP280;49037;41.898;25.004;2022-08-21T13:02:18;95739.28;;;25.63
62932;BMP280;49037;41.898;25.004;2022-08-21T13:07:15;95744.94;;;25.73
62932;BMP280;49037;41.898;25.004;2022-08-21T13:12:07;95745.22;;;25.52
62932;BMP280;49037;41.898;25.004;2022-08-21T13:14:37;95735.56;;;25.49
62932;BMP280;49037;41.898;25.004;2022-08-21T13:17:05;95730.56;;;25.39
62932;BMP280;49037;41.898;25.004;2022-08-21T13:19:32;95732.00;;;25.42
62932;BMP280;49037;41.898;25.004;2022-08-21T13:21:59;95740.84;;;25.41
62932;BMP280;49037;41.898;25.004;2022-08-21T13:24:28;95736.97;;;25.21
62932;BMP280;49037;41.898;25.004;2022-08-21T13:26:55;95733.00;;;24.97
62932;BMP280;49037;41.898;25.004;2022-08-21T13:29:30;95739.47;;;24.82
62932;BMP280;49037;41.898;25.004;2022-08-21T13:31:59;95741.47;;;24.79
62932;BMP280;49037;41.898;25.004;2022-08-21T13:34:30;95739.69;;;24.63
62932;BMP280;49037;41.898;25.004;2022-08-21T13:36:59;95744.28;;;24.56
62932;BMP280;49037;41.898;25.004;2022-08-21T13:39:27;95745.09;;;24.61
62932;BMP280;49037;41.898;25.004;2022-08-21T13:41:56;95754.84;;;24.69
62932;BMP280;49037;41.898;25.004;2022-08-21T13:44:46;95748.25;;;24.78
62932;BMP280;49037;41.898;25.004;2022-08-21T13:47:13;95756.44;;;24.78
62932;BMP280;49037;41.898;25.004;2022-08-21T13:49:43;95752.72;;;24.66
62932;BMP280;49037;41.898;25.004;2022-08-21T13:52:24;95754.97;;;24.73
62932;BMP280;49037;41.898;25.004;2022-08-21T13:57:26;95752.34;;;24.77
62932;BMP280;49037;41.898;25.004;2022-08-21T13:59:51;95744.78;;;24.76
62932;BMP280;49037;41.898;25.004;2022-08-21T14:02:23;95745.75;;;24.88
62932;BMP280;49037;41.898;25.004;2022-08-21T14:05:36;95748.16;;;25.01
62932;BMP280;49037;41.898;25.004;2022-08-21T14:08:08;95744.09;;;25.04
62932;BMP280;49037;41.898;25.004;2022-08-21T14:10:42;95741.72;;;24.91
62932;BMP280;49037;41.898;25.004;2022-08-21T14:16:00;95744.47;;;24.91
62932;BMP280;49037;41.898;25.004;2022-08-21T14:20:31;95739.94;;;24.74
62932;BMP280;49037;41.898;25.004;2022-08-21T14:22:57;95736.81;;;24.84
62932;BMP280;49037;41.898;25.004;2022-08-21T14:27:54;95735.53;;;25.18
62932;BMP280;49037;41.898;25.004;2022-08-21T14:30:32;95727.53;;;25.28
62932;BMP280;49037;41.898;25.004;2022-08-21T14:32:59;95722.22;;;25.33
62932;BMP280;49037;41.898;25.004;2022-08-21T14:35:24;95727.81;;;25.39
62932;BMP280;49037;41.898;25.004;2022-08-21T14:40:04;95719.56;;;25.37
62932;BMP280;49037;41.898;25.004;2022-08-21T14:42:30;95725.16;;;25.43
62932;BMP280;49037;41.898;25.004;2022-08-21T14:45:00;95717.69;;;25.46
62932;BMP280;49037;41.898;25.004;2022-08-21T14:47:26;95716.41;;;25.49
62932;BMP280;49037;41.898;25.004;2022-08-21T14:49:53;95716.44;;;25.51
62932;BMP280;49037;41.898;25.004;2022-08-21T14:52:20;95712.38;;;25.52
62932;BMP280;49037;41.898;25.004;2022-08-21T14:54:46;95709.19;;;25.65
62932;BMP280;49037;41.898;25.004;2022-08-21T14:57:12;95715.38;;;25.66
62932;BMP280;49037;41.898;25.004;2022-08-21T14:59:38;95717.47;;;25.67
62932;BMP280;49037;41.898;25.004;2022-08-21T15:02:05;95718.16;;;25.67
62932;BMP280;49037;41.898;25.004;2022-08-21T15:04:50;95714.75;;;25.69
62932;BMP280;49037;41.898;25.004;2022-08-21T15:07:16;95722.22;;;25.67
62932;BMP280;49037;41.898;25.004;2022-08-21T15:09:42;95715.94;;;25.58
62932;BMP280;49037;41.898;25.004;2022-08-21T15:12:08;95710.47;;;25.58
62932;BMP280;49037;41.898;25.004;2022-08-21T15:14:37;95711.66;;;25.51
62932;BMP280;49037;41.898;25.004;2022-08-21T15:17:06;95707.44;;;25.44
62932;BMP280;49037;41.898;25.004;2022-08-21T15:19:32;95711.59;;;25.47
62932;BMP280;49037;41.898;25.004;2022-08-21T15:21:57;95708.19;;;25.49
62932;BMP280;49037;41.898;25.004;2022-08-21T15:24:23;95708.25;;;25.53
62932;BMP280;49037;41.898;25.004;2022-08-21T15:26:49;95707.66;;;25.56
62932;BMP280;49037;41.898;25.004;2022-08-21T15:29:15;95706.25;;;25.53
62932;BMP280;49037;41.898;25.004;2022-08-21T15:32:02;95704.19;;;25.52
62932;BMP280;49037;41.898;25.004;2022-08-21T15:34:30;95696.59;;;25.50
62932;BMP280;49037;41.898;25.004;2022-08-21T15:36:57;95697.31;;;25.51
62932;BMP280;49037;41.898;25.004;2022-08-21T15:39:25;95687.00;;;25.49
62932;BMP280;49037;41.898;25.004;2022-08-21T15:41:51;95699.31;;;25.48
62932;BMP280;49037;41.898;25.004;2022-08-21T15:51:16;95689.50;;;25.37
62932;BMP280;49037;41.898;25.004;2022-08-21T15:53:43;95677.72;;;25.31
62932;BMP280;49037;41.898;25.004;2022-08-21T15:56:18;95678.38;;;25.30
62932;BMP280;49037;41.898;25.004;2022-08-21T15:58:46;95674.28;;;25.29
62932;BMP280;49037;41.898;25.004;2022-08-21T16:01:12;95676.88;;;25.23
62932;BMP280;49037;41.898;25.004;2022-08-21T16:03:38;95674.09;;;25.21
62932;BMP280;49037;41.898;25.004;2022-08-21T16:06:50;95674.69;;;25.17
62932;BMP280;49037;41.898;25.004;2022-08-21T16:09:16;95673.06;;;25.04
62932;BMP280;49037;41.898;25.004;2022-08-21T16:11:42;95670.69;;;24.91
62932;BMP280;49037;41.898;25.004;2022-08-21T16:14:09;95671.34;;;24.90
62932;BMP280;49037;41.898;25.004;2022-08-21T16:16:37;95663.66;;;24.82
62932;BMP280;49037;41.898;25.004;2022-08-21T16:19:03;95664.81;;;24.73
62932;BMP280;49037;41.898;25.004;2022-08-21T16:23:09;95673.84;;;24.51
62932;BMP280;49037;41.898;25.004;2022-08-21T16:25:37;95676.41;;;24.45
62932;BMP280;49037;41.898;25.004;2022-08-21T16:28:05;95669.25;;;24.32
62932;BMP280;49037;41.898;25.004;2022-08-21T16:30:31;95662.16;;;24.21
62932;BMP280;49037;41.898;25.004;2022-08-21T16:33:00;95659.25;;;24.13
62932;BMP280;49037;41.898;25.004;2022-08-21T16:35:26;95666.03;;;24.12
62932;BMP280;49037;41.898;25.004;2022-08-21T16:37:52;95666.47;;;24.03
62932;BMP280;49037;41.898;25.004;2022-08-21T16:40:41;95673.75;;;23.94
62932;BMP280;49037;41.898;25.004;2022-08-21T16:43:06;95672.28;;;23.91
62932;BMP280;49037;41.898;25.004;2022-08-21T16:48:54;95662.91;;;23.73
62932;BMP280;49037;41.898;25.004;2022-08-21T16:58:12;95663.66;;;23.51
62932;BMP280;49037;41.898;25.004;2022-08-21T17:01:11;95662.69;;;23.40
62932;BMP280;49037;41.898;25.004;2022-08-21T17:04:10;95653.66;;;23.36
62932;BMP280;49037;41.898;25.004;2022-08-21T17:19:37;95665.09;;;23.54
62932;BMP280;49037;41.898;25.004;2022-08-21T17:25:04;95658.34;;;23.10
62932;BMP280;49037;41.898;25.004;2022-08-21T17:27:31;95654.00;;;23.01
62932;BMP280;49037;41.898;25.004;2022-08-21T17:30:40;95652.47;;;22.96
62932;BMP280;49037;41.898;25.004;2022-08-21T17:33:33;95661.03;;;22.87
62932;BMP280;49037;41.898;25.004;2022-08-21T17:41:46;95656.81;;;22.61
62932;BMP280;49037;41.898;25.004;2022-08-21T18:41:23;95656.44;;;22.70
62932;BMP280;49037;41.898;25.004;2022-08-21T18:46:06;95682.16;;;22.46
62932;BMP280;49037;41.898;25.004;2022-08-21T18:48:32;95688.41;;;22.48
62932;BMP280;49037;41.898;25.004;2022-08-21T18:50:58;95695.47;;;22.38
62932;BMP280;49037;41.898;25.004;2022-08-21T18:53:24;95689.16;;;22.32
62932;BMP280;49037;41.898;25.004;2022-08-21T18:55:50;95694.59;;;22.32
62932;BMP280;49037;41.898;25.004;2022-08-21T19:13:40;95713.19;;;21.62
62932;BMP280;49037;41.898;25.004;2022-08-21T19:16:07;95706.13;;;21.55
62932;BMP280;49037;41.898;25.004;2022-08-21T19:18:38;95706.00;;;21.51
62932;BMP280;49037;41.898;25.004;2022-08-21T19:21:05;95711.44;;;21.51
62932;BMP280;49037;41.898;25.004;2022-08-21T19:23:31;95722.44;;;21.55
62932;BMP280;49037;41.898;25.004;2022-08-21T19:26:00;95706.44;;;21.46
62932;BMP280;49037;41.898;25.004;2022-08-21T19:28:32;95709.00;;;21.42
62932;BMP280;49037;41.898;25.004;2022-08-21T19:31:04;95710.72;;;21.51
62932;BMP280;49037;41.898;25.004;2022-08-21T19:33:33;95709.91;;;21.48
62932;BMP280;49037;41.898;25.004;2022-08-21T19:36:03;95722.03;;;21.45
62932;BMP280;49037;41.898;25.004;2022-08-21T19:38:28;95720.13;;;21.48
62932;BMP280;49037;41.898;25.004;2022-08-21T19:40:54;95710.00;;;21.33
62932;BMP280;49037;41.898;25.004;2022-08-21T19:43:21;95711.34;;;21.32
62932;BMP280;49037;41.898;25.004;2022-08-21T19:45:47;95705.13;;;21.30
62932;BMP280;49037;41.898;25.004;2022-08-21T19:48:13;95711.28;;;21.30
62932;BMP280;49037;41.898;25.004;2022-08-21T19:50:39;95703.81;;;21.13
62932;BMP280;49037;41.898;25.004;2022-08-21T19:53:05;95708.88;;;21.03
62932;BMP280;49037;41.898;25.004;2022-08-21T19:56:11;95704.75;;;21.02
62932;BMP280;49037;41.898;25.004;2022-08-21T19:58:40;95705.81;;;20.96
62932;BMP280;49037;41.898;25.004;2022-08-21T20:01:09;95705.63;;;20.90
62932;BMP280;49037;41.898;25.004;2022-08-21T20:03:49;95708.31;;;20.90
62932;BMP280;49037;41.898;25.004;2022-08-21T20:06:17;95706.66;;;20.83
62932;BMP280;49037;41.898;25.004;2022-08-21T20:08:44;95708.53;;;20.78
62932;BMP280;49037;41.898;25.004;2022-08-21T20:11:13;95725.50;;;20.79
62932;BMP280;49037;41.898;25.004;2022-08-21T20:13:39;95714.16;;;20.67
62932;BMP280;49037;41.898;25.004;2022-08-21T20:16:09;95715.66;;;20.70
62932;BMP280;49037;41.898;25.004;2022-08-21T20:18:37;95716.41;;;20.72
62932;BMP280;49037;41.898;25.004;2022-08-21T20:21:04;95706.50;;;20.79
62932;BMP280;49037;41.898;25.004;2022-08-21T20:23:30;95716.22;;;20.84
62932;BMP280;49037;41.898;25.004;2022-08-21T20:25:57;95709.13;;;20.77
62932;BMP280;49037;41.898;25.004;2022-08-21T20:28:24;95706.09;;;20.69
62932;BMP280;49037;41.898;25.004;2022-08-21T20:31:30;95707.88;;;20.62
62932;BMP280;49037;41.898;25.004;2022-08-21T20:33:56;95707.19;;;20.62
62932;BMP280;49037;41.898;25.004;2022-08-21T20:36:25;95710.75;;;20.66
62932;BMP280;49037;41.898;25.004;2022-08-21T20:38:51;95707.78;;;20.60
62932;BMP280;49037;41.898;25.004;2022-08-21T20:41:21;95705.78;;;20.61
62932;BMP280;49037;41.898;25.004;2022-08-21T20:43:51;95724.94;;;20.65
62932;BMP280;49037;41.898;25.004;2022-08-21T20:46:20;95712.03;;;20.48
62932;BMP280;49037;41.898;25.004;2022-08-21T20:48:50;95719.09;;;20.40
62932;BMP280;49037;41.898;25.004;2022-08-21T20:53:58;95711.28;;;20.30
62932;BMP280;49037;41.898;25.004;2022-08-21T20:56:48;95722.19;;;20.32
62932;BMP280;49037;41.898;25.004;2022-08-21T21:02:09;95727.16;;;20.22
62932;BMP280;49037;41.898;25.004;2022-08-21T21:04:46;95714.84;;;20.20
62932;BMP280;49037;41.898;25.004;2022-08-21T21:07:17;95714.84;;;20.20
62932;BMP280;49037;41.898;25.004;2022-08-21T21:09:49;95714.84;;;20.20
62932;BMP280;49037;41.898;25.004;2022-08-21T21:12:34;95726.66;;;20.26
62932;BMP280;49037;41.898;25.004;2022-08-21T21:15:10;95726.16;;;20.14
62932;BMP280;49037;41.898;25.004;2022-08-21T21:17:58;95720.97;;;20.05
62932;BMP280;49037;41.898;25.004;2022-08-21T21:20:30;95714.09;;;20.02
62932;BMP280;49037;41.898;25.004;2022-08-21T21:23:13;95721.84;;;19.94
62932;BMP280;49037;41.898;25.004;2022-08-21T21:26:57;95726.84;;;19.99
62932;BMP280;49037;41.898;25.004;2022-08-21T21:30:05;95723.31;;;19.82
62932;BMP280;49037;41.898;25.004;2022-08-21T21:32:42;95709.41;;;19.74
62932;BMP280;49037;41.898;25.004;2022-08-21T21:35:39;95712.72;;;19.72
62932;BMP280;49037;41.898;25.004;2022-08-21T22:15:13;95711.53;;;19.60
62932;BMP280;49037;41.898;25.004;2022-08-21T22:18:05;95698.09;;;19.48
62932;BMP280;49037;41.898;25.004;2022-08-21T22:20:55;95704.38;;;19.38
62932;BMP280;49037;41.898;25.004;2022-08-21T22:23:33;95710.47;;;19.38
62932;BMP280;49037;41.898;25.004;2022-08-21T22:26:19;95713.00;;;19.34
62932;BMP280;49037;41.898;25.004;2022-08-21T22:29:12;95716.50;;;19.37
62932;BMP280;49037;41.898;25.004;2022-08-21T22:32:05;95724.41;;;19.46
62932;BMP280;49037;41.898;25.004;2022-08-21T22:35:41;95703.13;;;19.41
62932;BMP280;49037;41.898;25.004;2022-08-21T22:38:44;95716.69;;;19.41
62932;BMP280;49037;41.898;25.004;2022-08-21T22:41:53;95702.00;;;19.30
62932;BMP280;49037;41.898;25.004;2022-08-21T22:44:24;95704.00;;;19.30
62932;BMP280;49037;41.898;25.004;2022-08-21T22:46:56;95710.63;;;19.27
62932;BMP280;49037;41.898;25.004;2022-08-21T22:52:36;95708.88;;;19.33
62932;BMP280;49037;41.898;25.004;2022-08-21T22:55:35;95708.88;;;19.33
62932;BMP280;49037;41.898;25.004;2022-08-21T22:58:58;95723.22;;;19.36
62932;BMP280;49037;41.898;25.004;2022-08-21T23:34:00;95699.13;;;20.01
62932;BMP280;49037;41.898;25.004;2022-08-21T23:37:18;95676.75;;;19.85
62932;BMP280;49037;41.898;25.004;2022-08-21T23:43:44;95695.44;;;19.79
62932;BMP280;49037;41.898;25.004;2022-08-21T23:49:59;95696.56;;;19.74
